Time;durP1;ratioP1;P1;durP2;ratioP2;P2;SDS_P1;SDS_P2;PMS_P1;PMS_P2;Temp;Humidity;BMP_temperature;BMP_pressure;BME280_temperature;BME280_humidity;BME280_pressure;Samples;Min_cycle;Max_cycle;Signal;HPM_P1;HPM_P2
2021/01/30 00:01:40;;;;;;;;;;;;;;;;;;5084601;28;19925;-68
2021/01/30 00:04:06;;;;;;;;;;;;;;;;;;5089094;28;19923;-68
2021/01/30 00:06:33;;;;;;;;;;;;;;;;;;5083757;28;19928;-68
2021/01/30 00:08:59;;;;;;;;;;;;;;;;;;5082563;28;19934;-68
2021/01/30 00:11:26;;;;;;;;;;;;;;;;;;5082595;28;19978;-68
2021/01/30 00:13:52;;;;;;;;;;;;;;;;;;5079772;28;19928;-68
2021/01/30 00:16:19;;;;;;;;;;;;;;;;;;5085997;28;19924;-67
2021/01/30 00:18:45;;;;;;;;;;;;;;;;;;5082976;28;19923;-67
2021/01/30 00:21:12;;;;;;;;;;;;;;;;;;5076450;28;20669;-67
2021/01/30 00:23:38;;;;;;;;;;;;;;;;;;5088049;28;19928;-68
2021/01/30 00:26:05;;;;;;;;;;;;;;;;;;5082479;28;19924;-68
2021/01/30 00:28:31;;;;;;;;;;;;;;;;;;5080481;28;19928;-69
2021/01/30 00:30:58;;;;;;;;;;;;;;;;;;5082935;28;20015;-68
2021/01/30 00:33:25;;;;;;;;;;;;;;;;;;5089988;28;19932;-68
2021/01/30 00:35:51;;;;;;;;;;;;;;;;;;5097110;28;19992;-68
2021/01/30 00:38:18;;;;;;;;;;;;;;;;;;5095689;28;19935;-68
2021/01/30 00:40:44;;;;;;;;;;;;;;;;;;5086324;28;19927;-68
2021/01/30 00:43:11;;;;;;;;;;;;;;;;;;5098724;28;20324;-68
2021/01/30 00:45:37;;;;;;;;;;;;;;;;;;5092074;28;20014;-69
2021/01/30 00:48:04;;;;;;;;;;;;;;;;;;5083368;28;19943;-68
2021/01/30 00:50:30;;;;;;;;;;;;;;;;;;5090760;28;20290;-68
2021/01/30 00:52:57;;;;;;;;;;;;;;;;;;5086847;28;19947;-68
2021/01/30 00:55:23;;;;;;;;;;;;;;;;;;5085759;28;19924;-68
2021/01/30 00:57:50;;;;;;;;;;;;;;;;;;5085461;28;19967;-68
2021/01/30 01:00:16;;;;;;;;;;;;;;;;;;5088160;28;19970;-68
2021/01/30 01:02:43;;;;;;;;;;;;;;;;;;5082841;28;19942;-68
2021/01/30 01:05:09;;;;;;;;;;;;;;;;;;5086697;28;19931;-68
2021/01/30 01:07:36;;;;;;;;;;;;;;;;;;5084559;28;19924;-68
2021/01/30 01:10:02;;;;;;;;;;;;;;;;;;5082860;28;19929;-68
2021/01/30 01:12:29;;;;;;;;;;;;;;;;;;5089623;28;19924;-68
2021/01/30 01:14:55;;;;;;;;;;;;;;;;;;5088155;28;19924;-68
2021/01/30 01:17:22;;;;;;;;;;;;;;;;;;5085995;28;20007;-68
2021/01/30 01:19:48;;;;;;;;;;;;;;;;;;5077103;28;20031;-68
2021/01/30 01:22:15;;;;;;;;;;;;;;;;;;5084831;28;20376;-68
2021/01/30 01:24:41;;;;;;;;;;;;;;;;;;5081012;28;19930;-68
2021/01/30 01:27:08;;;;;;;;;;;;;;;;;;5085714;28;20298;-67
2021/01/30 01:29:34;;;;;;;;;;;;;;;;;;5089698;28;19924;-67
2021/01/30 01:32:01;;;;;;;;;;;;;;;;;;5085430;28;19924;-67
2021/01/30 01:34:27;;;;;;;;;;;;;;;;;;5088812;28;19965;-67
2021/01/30 01:36:54;;;;;;;;;;;;;;;;;;5098047;22;19935;-68
2021/01/30 01:39:20;;;;;;;;;;;;;;;;;;5071841;28;19924;-68
2021/01/30 01:41:47;;;;;;;;;;;;;;;;;;5074374;28;19928;-67
2021/01/30 01:44:13;;;;;;;;;;;;;;;;;;5075998;28;20402;-68
2021/01/30 01:46:40;;;;;;;;;;;;;;;;;;5070489;28;19931;-68
2021/01/30 01:49:06;;;;;;;;;;;;;;;;;;5053609;28;19931;-68
2021/01/30 01:51:33;;;;;;;;;;;;;;;;;;5054645;28;20016;-68
2021/01/30 01:53:59;;;;;;;;;;;;;;;;;;5061534;28;20385;-68
2021/01/30 01:56:26;;;;;;;;;;;;;;;;;;5054927;28;19924;-68
2021/01/30 01:58:52;;;;;;;;;;;;;;;;;;5054388;28;20371;-68
2021/01/30 02:01:19;;;;;;;;;;;;;;;;;;5055917;28;20015;-67
2021/01/30 02:03:45;;;;;;;;;;;;;;;;;;5056602;28;19931;-68
2021/01/30 02:06:12;;;;;;;;;;;;;;;;;;5053903;28;19928;-69
2021/01/30 02:08:38;;;;;;;;;;;;;;;;;;5053539;28;20347;-68
2021/01/30 02:11:05;;;;;;;;;;;;;;;;;;5053906;28;19931;-67
2021/01/30 02:13:31;;;;;;;;;;;;;;;;;;5048754;28;19932;-68
2021/01/30 02:15:57;;;;;;;;;;;;;;;;;;5055006;28;19939;-68
2021/01/30 02:18:24;;;;;;;;;;;;;;;;;;5052882;28;19925;-67
2021/01/30 02:20:50;;;;;;;;;;;;;;;;;;5055851;28;19939;-67
2021/01/30 02:23:17;;;;;;;;;;;;;;;;;;5055127;28;20019;-68
2021/01/30 02:25:43;;;;;;;;;;;;;;;;;;5055757;28;19936;-68
2021/01/30 02:28:10;;;;;;;;;;;;;;;;;;5053534;28;19946;-66
2021/01/30 02:30:36;;;;;;;;;;;;;;;;;;5061794;28;19986;-68
2021/01/30 02:33:03;;;;;;;;;;;;;;;;;;5056721;28;19924;-68
2021/01/30 02:35:29;;;;;;;;;;;;;;;;;;5052918;28;19924;-67
2021/01/30 02:37:56;;;;;;;;;;;;;;;;;;5053650;28;20036;-67
2021/01/30 02:40:22;;;;;;;;;;;;;;;;;;5054588;28;20015;-68
2021/01/30 02:42:49;;;;;;;;;;;;;;;;;;5052995;28;19936;-69
2021/01/30 02:45:17;;;;;;;;;;;;;;;;;;5052313;28;20445;-68
2021/01/30 02:47:43;;;;;;;;;;;;;;;;;;5053537;28;20027;-67
2021/01/30 02:50:10;;;;;;;;;;;;;;;;;;5058074;28;19931;-67
2021/01/30 02:52:36;;;;;;;;;;;;;;;;;;5054410;28;20015;-67
2021/01/30 02:55:03;;;;;;;;;;;;;;;;;;5053020;28;20065;-69
2021/01/30 02:57:29;;;;;;;;;;;;;;;;;;5053523;28;19931;-66
2021/01/30 02:59:56;;;;;;;;;;;;;;;;;;5056762;28;20380;-67
2021/01/30 03:02:22;;;;;;;;;;;;;;;;;;5054929;28;19925;-68
2021/01/30 03:04:49;;;;;;;;;;;;;;;;;;5055741;28;19931;-69
2021/01/30 03:07:15;;;;;;;;;;;;;;;;;;5052603;28;19925;-68
2021/01/30 03:09:42;;;;;;;;;;;;;;;;;;5053260;28;20410;-68
2021/01/30 03:12:08;;;;;;;;;;;;;;;;;;5053326;28;20012;-67
2021/01/30 03:14:35;;;;;;;;;;;;;;;;;;5056475;28;19925;-67
2021/01/30 03:17:01;;;;;;;;;;;;;;;;;;5062255;28;19928;-68
2021/01/30 03:19:28;;;;;;;;;;;;;;;;;;5051399;28;19925;-67
2021/01/30 03:21:54;;;;;;;;;;;;;;;;;;5059327;28;19928;-68
2021/01/30 03:24:20;;;;;;;;;;;;;;;;;;5053327;28;19924;-67
2021/01/30 03:26:47;;;;;;;;;;;;;;;;;;5050913;28;20384;-67
2021/01/30 03:29:13;;;;;;;;;;;;;;;;;;5054110;28;19955;-67
2021/01/30 03:31:40;;;;;;;;;;;;;;;;;;5052061;28;19987;-68
2021/01/30 03:34:06;;;;;;;;;;;;;;;;;;5053504;28;19931;-68
2021/01/30 03:36:33;;;;;;;;;;;;;;;;;;5055102;28;20380;-68
2021/01/30 03:38:59;;;;;;;;;;;;;;;;;;5057282;28;20354;-68
2021/01/30 03:41:26;;;;;;;;;;;;;;;;;;5058769;28;19931;-68
2021/01/30 03:43:52;;;;;;;;;;;;;;;;;;5053662;28;20011;-67
2021/01/30 03:46:18;;;;;;;;;;;;;;;;;;5053201;28;19931;-68
2021/01/30 03:48:45;;;;;;;;;;;;;;;;;;5049238;28;19978;-67
2021/01/30 03:51:11;;;;;;;;;;;;;;;;;;5052216;28;19924;-68
2021/01/30 03:53:38;;;;;;;;;;;;;;;;;;5057253;28;19931;-68
2021/01/30 03:56:04;;;;;;;;;;;;;;;;;;5052095;28;19929;-68
2021/01/30 03:58:31;;;;;;;;;;;;;;;;;;5052717;28;20418;-68
2021/01/30 04:00:57;;;;;;;;;;;;;;;;;;5051613;28;20028;-68
2021/01/30 04:03:24;;;;;;;;;;;;;;;;;;5054556;28;20027;-68
2021/01/30 04:05:50;;;;;;;;;;;;;;;;;;5055114;28;19924;-68
2021/01/30 04:08:17;;;;;;;;;;;;;;;;;;5055555;28;19981;-68
2021/01/30 04:10:43;;;;;;;;;;;;;;;;;;5053063;28;19931;-68
2021/01/30 04:13:10;;;;;;;;;;;;;;;;;;5051108;28;20649;-68
2021/01/30 04:15:36;;;;;;;;;;;;;;;;;;5052052;28;19931;-67
2021/01/30 04:18:03;;;;;;;;;;;;;;;;;;5057473;28;20673;-67
2021/01/30 04:20:29;;;;;;;;;;;;;;;;;;5054224;28;19931;-68
2021/01/30 04:22:56;;;;;;;;;;;;;;;;;;5057692;28;20024;-67
2021/01/30 04:25:22;;;;;;;;;;;;;;;;;;5054865;28;19925;-68
2021/01/30 04:27:49;;;;;;;;;;;;;;;;;;5051711;28;19932;-68
2021/01/30 04:30:15;;;;;;;;;;;;;;;;;;5051125;28;19928;-70
2021/01/30 04:32:41;;;;;;;;;;;;;;;;;;5050702;28;19924;-67
2021/01/30 04:35:08;;;;;;;;;;;;;;;;;;5056307;28;19929;-67
2021/01/30 04:37:34;;;;;;;;;;;;;;;;;;5050732;28;19925;-67
2021/01/30 04:40:01;;;;;;;;;;;;;;;;;;5052445;28;20372;-68
2021/01/30 04:42:27;;;;;;;;;;;;;;;;;;5053797;28;19929;-67
2021/01/30 04:44:54;;;;;;;;;;;;;;;;;;5048368;28;19933;-67
2021/01/30 04:47:20;;;;;;;;;;;;;;;;;;5056530;28;19924;-67
2021/01/30 04:49:47;;;;;;;;;;;;;;;;;;5052741;28;19936;-68
2021/01/30 04:52:13;;;;;;;;;;;;;;;;;;5051911;28;19931;-68
2021/01/30 04:54:40;;;;;;;;;;;;;;;;;;5052068;28;19931;-68
2021/01/30 04:57:06;;;;;;;;;;;;;;;;;;5049827;28;20413;-67
2021/01/30 04:59:33;;;;;;;;;;;;;;;;;;5056493;28;19933;-68
2021/01/30 05:01:59;;;;;;;;;;;;;;;;;;5057493;28;19931;-68
2021/01/30 05:04:26;;;;;;;;;;;;;;;;;;5053450;28;19925;-68
2021/01/30 05:06:52;;;;;;;;;;;;;;;;;;5052265;28;19939;-67
2021/01/30 05:09:19;;;;;;;;;;;;;;;;;;5053370;28;20043;-66
2021/01/30 05:11:45;;;;;;;;;;;;;;;;;;5050817;28;19925;-67
2021/01/30 05:14:12;;;;;;;;;;;;;;;;;;5050821;28;19974;-66
2021/01/30 05:16:38;;;;;;;;;;;;;;;;;;5053888;28;19925;-66
2021/01/30 05:19:05;;;;;;;;;;;;;;;;;;5053191;28;19947;-67
2021/01/30 05:21:31;;;;;;;;;;;;;;;;;;5051082;28;20063;-68
2021/01/30 05:23:58;;;;;;;;;;;;;;;;;;5050844;28;19973;-68
2021/01/30 05:26:24;;;;;;;;;;;;;;;;;;5052670;28;19925;-67
2021/01/30 05:28:50;;;;;;;;;;;;;;;;;;5055453;28;19925;-68
2021/01/30 05:31:17;;;;;;;;;;;;;;;;;;5051455;28;19932;-70
2021/01/30 05:33:43;;;;;;;;;;;;;;;;;;5052110;28;19924;-69
2021/01/30 05:36:11;;;;;;;;;;;;;;;;;;5052742;28;20415;-68
2021/01/30 05:38:38;;;;;;;;;;;;;;;;;;5056311;28;19931;-69
2021/01/30 05:41:04;;;;;;;;;;;;;;;;;;5054245;28;20091;-68
2021/01/30 05:43:30;;;;;;;;;;;;;;;;;;5058770;28;19978;-68
2021/01/30 05:45:57;;;;;;;;;;;;;;;;;;5051751;28;19935;-70
2021/01/30 05:48:23;;;;;;;;;;;;;;;;;;5051434;28;20109;-69
2021/01/30 05:50:50;;;;;;;;;;;;;;;;;;5058105;28;19947;-68
2021/01/30 05:53:16;;;;;;;;;;;;;;;;;;5055172;28;19937;-69
2021/01/30 05:55:43;;;;;;;;;;;;;;;;;;5053416;28;19930;-68
2021/01/30 05:58:09;;;;;;;;;;;;;;;;;;5053779;28;19947;-68
2021/01/30 06:00:36;;;;;;;;;;;;;;;;;;5050736;28;19924;-68
2021/01/30 06:03:02;;;;;;;;;;;;;;;;;;5048469;28;20011;-68
2021/01/30 06:05:28;;;;;;;;;;;;;;;;;;5056822;28;20334;-68
2021/01/30 06:07:55;;;;;;;;;;;;;;;;;;5052079;28;19925;-69
2021/01/30 06:10:21;;;;;;;;;;;;;;;;;;5054005;28;19970;-69
2021/01/30 06:12:48;;;;;;;;;;;;;;;;;;5051923;28;19931;-68
2021/01/30 06:15:14;;;;;;;;;;;;;;;;;;5050156;28;19925;-69
2021/01/30 06:17:41;;;;;;;;;;;;;;;;;;5049705;28;19931;-68
2021/01/30 06:20:09;;;;;;;;;;;;;;;;;;5051093;28;20111;-68
2021/01/30 06:22:35;;;;;;;;;;;;;;;;;;5051275;28;19929;-68
2021/01/30 06:25:01;;;;;;;;;;;;;;;;;;5056092;28;20385;-67
2021/01/30 06:27:28;;;;;;;;;;;;;;;;;;5057433;28;20335;-68
2021/01/30 06:29:54;;;;;;;;;;;;;;;;;;5056854;28;19924;-68
2021/01/30 06:32:21;;;;;;;;;;;;;;;;;;5054633;28;19933;-68
2021/01/30 06:34:47;;;;;;;;;;;;;;;;;;5054478;28;19970;-68
2021/01/30 06:37:14;;;;;;;;;;;;;;;;;;5058715;28;20316;-68
2021/01/30 06:39:40;;;;;;;;;;;;;;;;;;5056911;28;20015;-68
2021/01/30 06:42:07;;;;;;;;;;;;;;;;;;5054856;28;19974;-68
2021/01/30 06:44:33;;;;;;;;;;;;;;;;;;5058066;28;19939;-68
2021/01/30 06:47:00;;;;;;;;;;;;;;;;;;5055971;28;19935;-68
2021/01/30 06:49:26;;;;;;;;;;;;;;;;;;5052212;28;19928;-68
2021/01/30 06:51:53;;;;;;;;;;;;;;;;;;5051954;28;19924;-68
2021/01/30 06:54:19;;;;;;;;;;;;;;;;;;5053140;28;19931;-68
2021/01/30 06:56:46;;;;;;;;;;;;;;;;;;5052958;28;19933;-68
2021/01/30 06:59:12;;;;;;;;;;;;;;;;;;5052199;28;20004;-68
2021/01/30 07:01:40;;;;;;;;;;;;;;;;;;5052483;28;19925;-68
2021/01/30 07:04:06;;;;;;;;;;;;;;;;;;5054443;28;20308;-68
2021/01/30 07:06:32;;;;;;;;;;;;;;;;;;5053488;28;20327;-68
2021/01/30 07:09:01;;;;;;;;;;;;;;;;;;5053790;28;19931;-68
2021/01/30 07:11:28;;;;;;;;;;;;;;;;;;5053496;28;20432;-68
2021/01/30 07:13:54;;;;;;;;;;;;;;;;;;5057482;28;20295;-68
2021/01/30 07:16:21;;;;;;;;;;;;;;;;;;5051908;28;20346;-68
2021/01/30 07:18:47;;;;;;;;;;;;;;;;;;5052241;28;20327;-66
2021/01/30 07:21:14;;;;;;;;;;;;;;;;;;5057502;28;20369;-69
2021/01/30 07:23:42;;;;;;;;;;;;;;;;;;5050848;28;20377;-67
2021/01/30 07:26:08;;;;;;;;;;;;;;;;;;5052670;28;19925;-67
2021/01/30 07:28:35;;;;;;;;;;;;;;;;;;5061423;28;19931;-66
2021/01/30 07:31:01;;;;;;;;;;;;;;;;;;5055450;28;19932;-68
2021/01/30 07:33:27;;;;;;;;;;;;;;;;;;5052550;28;19933;-67
2021/01/30 07:35:54;;;;;;;;;;;;;;;;;;5056286;28;19978;-67
2021/01/30 07:38:20;;;;;;;;;;;;;;;;;;5050288;28;19929;-66
2021/01/30 07:40:47;;;;;;;;;;;;;;;;;;5054252;28;19928;-65
2021/01/30 07:43:13;;;;;;;;;;;;;;;;;;5054158;28;19929;-66
2021/01/30 07:45:40;;;;;;;;;;;;;;;;;;5058691;28;20020;-66
2021/01/30 07:48:06;;;;;;;;;;;;;;;;;;5048143;28;19937;-66
2021/01/30 07:50:33;;;;;;;;;;;;;;;;;;5060470;28;19928;-67
2021/01/30 07:52:59;;;;;;;;;;;;;;;;;;5053282;28;20024;-66
2021/01/30 07:55:25;;;;;;;;;;;;;;;;;;5054602;28;19924;-66
2021/01/30 07:57:56;;;;;;;;;;;;;;;;;;5053830;28;20258;-66
2021/01/30 08:00:23;;;;;;;;;;;;;;;;;;5055569;28;19929;-66
2021/01/30 08:02:49;;;;;;;;;;;;;;;;;;5044604;28;19929;-66
2021/01/30 08:05:15;;;;;;;;;;;;;;;;;;5059570;28;19924;-66
2021/01/30 08:07:42;;;;;;;;;;;;;;;;;;5062160;28;20295;-66
2021/01/30 08:10:08;;;;;;;;;;;;;;;;;;5054322;28;19925;-66
2021/01/30 08:12:35;;;;;;;;;;;;;;;;;;5058497;28;19925;-66
2021/01/30 08:15:01;;;;;;;;;;;;;;;;;;5061657;28;19950;-66
2021/01/30 08:17:28;;;;;;;;;;;;;;;;;;5055365;28;19924;-66
2021/01/30 08:19:54;;;;;;;;;;;;;;;;;;5060176;28;20303;-66
2021/01/30 08:22:21;;;;;;;;;;;;;;;;;;5052290;28;19928;-66
2021/01/30 08:24:47;;;;;;;;;;;;;;;;;;5051155;28;19939;-65
2021/01/30 08:27:14;;;;;;;;;;;;;;;;;;5051998;28;19979;-68
2021/01/30 08:29:40;;;;;;;;;;;;;;;;;;5054203;28;19928;-69
2021/01/30 08:32:06;;;;;;;;;;;;;;;;;;5051499;28;19929;-66
2021/01/30 08:34:33;;;;;;;;;;;;;;;;;;5058632;28;20009;-66
2021/01/30 08:36:59;;;;;;;;;;;;;;;;;;5052493;28;19931;-66
2021/01/30 08:39:26;;;;;;;;;;;;;;;;;;5051064;28;20282;-67
2021/01/30 08:41:52;;;;;;;;;;;;;;;;;;5046819;28;20031;-67
2021/01/30 08:44:19;;;;;;;;;;;;;;;;;;5052409;28;19925;-67
2021/01/30 08:46:45;;;;;;;;;;;;;;;;;;5054825;28;19924;-66
2021/01/30 08:49:12;;;;;;;;;;;;;;;;;;5036603;28;19925;-67
2021/01/30 08:51:38;;;;;;;;;;;;;;;;;;5057714;28;19925;-67
2021/01/30 08:54:05;;;;;;;;;;;;;;;;;;5039946;28;20446;-67
2021/01/30 08:56:31;;;;;;;;;;;;;;;;;;5047003;28;19924;-67
2021/01/30 08:58:58;;;;;;;;;;;;;;;;;;5053751;28;20007;-67
2021/01/30 09:01:24;;;;;;;;;;;;;;;;;;5054486;28;19970;-66
2021/01/30 09:03:51;;;;;;;;;;;;;;;;;;5056366;28;19924;-67
2021/01/30 09:06:17;;;;;;;;;;;;;;;;;;5060235;28;19925;-67
2021/01/30 09:08:44;;;;;;;;;;;;;;;;;;5060100;28;19934;-68
2021/01/30 09:11:10;;;;;;;;;;;;;;;;;;5053428;28;19925;-67
2021/01/30 09:13:37;;;;;;;;;;;;;;;;;;5051699;28;19928;-66
2021/01/30 09:16:03;;;;;;;;;;;;;;;;;;5058979;28;19924;-67
2021/01/30 09:18:31;;;;;;;;;;;;;;;;;;5055749;28;19966;-68
2021/01/30 09:20:57;;;;;;;;;;;;;;;;;;5056565;28;20583;-68
2021/01/30 09:23:24;;;;;;;;;;;;;;;;;;5053449;28;20431;-67
2021/01/30 09:25:50;;;;;;;;;;;;;;;;;;5050401;28;19933;-68
2021/01/30 09:28:16;;;;;;;;;;;;;;;;;;5043381;28;20339;-67
2021/01/30 09:30:43;;;;;;;;;;;;;;;;;;5051775;28;19931;-68
2021/01/30 09:33:09;;;;;;;;;;;;;;;;;;5055424;28;19925;-67
2021/01/30 09:35:36;;;;;;;;;;;;;;;;;;5054707;28;20396;-68
2021/01/30 09:38:02;;;;;;;;;;;;;;;;;;5053266;28;19960;-69
2021/01/30 09:40:29;;;;;;;;;;;;;;;;;;5051235;28;19970;-68
2021/01/30 09:42:55;;;;;;;;;;;;;;;;;;5051268;28;19957;-69
2021/01/30 09:45:22;;;;;;;;;;;;;;;;;;5049927;28;19932;-68
2021/01/30 09:47:50;;;;;;;;;;;;;;;;;;5048935;28;19950;-69
2021/01/30 09:50:17;;;;;;;;;;;;;;;;;;5055899;28;19928;-68
2021/01/30 09:52:43;;;;;;;;;;;;;;;;;;5051828;28;19971;-68
2021/01/30 09:55:09;;;;;;;;;;;;;;;;;;5050147;28;20023;-69
2021/01/30 09:57:36;;;;;;;;;;;;;;;;;;5050474;28;20401;-69
2021/01/30 10:00:03;;;;;;;;;;;;;;;;;;5046349;28;20415;-68
2021/01/30 10:02:29;;;;;;;;;;;;;;;;;;5055126;28;19931;-69
2021/01/30 10:04:56;;;;;;;;;;;;;;;;;;5055558;28;19929;-68
2021/01/30 10:07:22;;;;;;;;;;;;;;;;;;5057393;28;20401;-69
2021/01/30 10:09:48;;;;;;;;;;;;;;;;;;5055418;28;19929;-69
2021/01/30 10:12:15;;;;;;;;;;;;;;;;;;5055638;28;20019;-69
2021/01/30 10:14:41;;;;;;;;;;;;;;;;;;5059790;28;19932;-69
2021/01/30 10:17:08;;;;;;;;;;;;;;;;;;5053328;28;20015;-68
2021/01/30 10:19:34;;;;;;;;;;;;;;;;;;5056162;28;19951;-68
2021/01/30 10:22:01;;;;;;;;;;;;;;;;;;5052673;28;19931;-69
2021/01/30 10:24:27;;;;;;;;;;;;;;;;;;5060524;28;19924;-69
2021/01/30 10:26:54;;;;;;;;;;;;;;;;;;5054634;28;20038;-68
2021/01/30 10:29:20;;;;;;;;;;;;;;;;;;5061282;28;19930;-68
2021/01/30 10:31:47;;;;;;;;;;;;;;;;;;5058187;28;19971;-66
2021/01/30 10:34:13;;;;;;;;;;;;;;;;;;5052711;28;19979;-66
2021/01/30 10:36:40;;;;;;;;;;;;;;;;;;5053880;28;19960;-66
2021/01/30 10:39:06;;;;;;;;;;;;;;;;;;5053049;28;19934;-67
2021/01/30 10:41:32;;;;;;;;;;;;;;;;;;5050992;28;20339;-66
2021/01/30 10:43:59;;;;;;;;;;;;;;;;;;5051306;28;20568;-67
2021/01/30 10:46:25;;;;;;;;;;;;;;;;;;5053060;28;20445;-67
2021/01/30 10:48:52;;;;;;;;;;;;;;;;;;5048524;28;20399;-66
2021/01/30 10:51:18;;;;;;;;;;;;;;;;;;5055867;28;19924;-66
2021/01/30 10:53:46;;;;;;;;;;;;;;;;;;5051700;28;19925;-66
2021/01/30 10:56:12;;;;;;;;;;;;;;;;;;5052182;28;19925;-66
2021/01/30 10:58:39;;;;;;;;;;;;;;;;;;5053278;28;20308;-67
2021/01/30 11:01:05;;;;;;;;;;;;;;;;;;5053457;28;19925;-67
2021/01/30 11:03:32;;;;;;;;;;;;;;;;;;5051851;28;20020;-67
2021/01/30 11:05:59;;;;;;;;;;;;;;;;;;5053037;28;19968;-68
2021/01/30 11:08:25;;;;;;;;;;;;;;;;;;5052112;28;19933;-68
2021/01/30 11:10:52;;;;;;;;;;;;;;;;;;5049549;28;20019;-68
2021/01/30 11:13:18;;;;;;;;;;;;;;;;;;5057609;28;20427;-69
2021/01/30 11:15:45;;;;;;;;;;;;;;;;;;5049785;28;20372;-68
2021/01/30 11:18:11;;;;;;;;;;;;;;;;;;5051966;28;19925;-67
2021/01/30 11:20:40;;;;;;;;;;;;;;;;;;5052131;28;20362;-67
2021/01/30 11:23:06;;;;;;;;;;;;;;;;;;5054556;28;19928;-66
2021/01/30 11:25:32;;;;;;;;;;;;;;;;;;5046268;28;19926;-67
2021/01/30 11:27:59;;;;;;;;;;;;;;;;;;5050887;28;19925;-68
2021/01/30 11:30:25;;;;;;;;;;;;;;;;;;5061547;28;20376;-68
2021/01/30 11:32:52;;;;;;;;;;;;;;;;;;5048637;28;19932;-68
2021/01/30 11:35:18;;;;;;;;;;;;;;;;;;5062917;28;19955;-68
2021/01/30 11:37:45;;;;;;;;;;;;;;;;;;5056517;28;19970;-67
2021/01/30 11:40:11;;;;;;;;;;;;;;;;;;5057582;28;19931;-67
2021/01/30 11:42:38;;;;;;;;;;;;;;;;;;5058309;28;19947;-69
2021/01/30 11:45:04;;;;;;;;;;;;;;;;;;5065393;28;20019;-69
2021/01/30 11:47:31;;;;;;;;;;;;;;;;;;5053595;28;19929;-69
2021/01/30 11:49:57;;;;;;;;;;;;;;;;;;5061209;28;19975;-68
2021/01/30 11:52:23;;;;;;;;;;;;;;;;;;5052917;28;19924;-68
2021/01/30 11:54:50;;;;;;;;;;;;;;;;;;5054111;28;19925;-69
2021/01/30 11:57:17;;;;;;;;;;;;;;;;;;5052721;28;20420;-69
2021/01/30 11:59:43;;;;;;;;;;;;;;;;;;5053165;28;19925;-69
2021/01/30 12:02:10;;;;;;;;;;;;;;;;;;5058069;28;19925;-69
2021/01/30 12:04:36;;;;;;;;;;;;;;;;;;5053541;28;20016;-69
2021/01/30 12:07:02;;;;;;;;;;;;;;;;;;5057682;28;19931;-69
2021/01/30 12:09:29;;;;;;;;;;;;;;;;;;5052312;28;20057;-69
2021/01/30 12:11:55;;;;;;;;;;;;;;;;;;5059221;28;20011;-69
2021/01/30 12:14:22;;;;;;;;;;;;;;;;;;5045896;28;19939;-68
2021/01/30 12:16:48;;;;;;;;;;;;;;;;;;5057350;28;19924;-69
2021/01/30 12:19:15;;;;;;;;;;;;;;;;;;5052468;28;19933;-69
2021/01/30 12:21:41;;;;;;;;;;;;;;;;;;5055196;28;20000;-70
2021/01/30 12:24:08;;;;;;;;;;;;;;;;;;5053150;28;20016;-70
2021/01/30 12:26:34;;;;;;;;;;;;;;;;;;5045221;28;20019;-69
2021/01/30 12:29:01;;;;;;;;;;;;;;;;;;5053045;28;20024;-69
2021/01/30 12:31:27;;;;;;;;;;;;;;;;;;5056731;28;19967;-68
2021/01/30 12:33:54;;;;;;;;;;;;;;;;;;5054945;28;20030;-68
2021/01/30 12:36:20;;;;;;;;;;;;;;;;;;5055939;28;19932;-69
2021/01/30 12:38:47;;;;;;;;;;;;;;;;;;5059793;28;19971;-68
2021/01/30 12:41:13;;;;;;;;;;;;;;;;;;5053155;28;20288;-68
2021/01/30 12:43:40;;;;;;;;;;;;;;;;;;5062412;28;19975;-68
2021/01/30 12:46:06;;;;;;;;;;;;;;;;;;5052587;28;19929;-68
2021/01/30 12:48:32;;;;;;;;;;;;;;;;;;5055388;28;19925;-69
2021/01/30 12:50:59;;;;;;;;;;;;;;;;;;5052774;28;19931;-68
2021/01/30 12:53:25;;;;;;;;;;;;;;;;;;5054339;28;20063;-67
2021/01/30 12:55:52;;;;;;;;;;;;;;;;;;5066299;28;19931;-68
2021/01/30 12:58:18;;;;;;;;;;;;;;;;;;5058438;28;20289;-68
2021/01/30 13:00:45;;;;;;;;;;;;;;;;;;5057798;28;19973;-68
2021/01/30 13:03:12;;;;;;;;;;;;;;;;;;5052264;28;20381;-67
2021/01/30 13:05:38;;;;;;;;;;;;;;;;;;5052648;28;19924;-67
2021/01/30 13:08:05;;;;;;;;;;;;;;;;;;5051392;28;20027;-68
2021/01/30 13:10:31;;;;;;;;;;;;;;;;;;5051519;28;19925;-68
2021/01/30 13:12:58;;;;;;;;;;;;;;;;;;5052297;28;19933;-69
2021/01/30 13:15:24;;;;;;;;;;;;;;;;;;5052373;28;20447;-68
2021/01/30 13:17:50;;;;;;;;;;;;;;;;;;5051696;28;19968;-67
2021/01/30 13:20:17;;;;;;;;;;;;;;;;;;5052480;28;19924;-67
2021/01/30 13:22:43;;;;;;;;;;;;;;;;;;5052068;28;20024;-68
2021/01/30 13:25:10;;;;;;;;;;;;;;;;;;5052210;28;19972;-69
2021/01/30 13:27:36;;;;;;;;;;;;;;;;;;5054541;28;20349;-68
2021/01/30 13:30:03;;;;;;;;;;;;;;;;;;5049355;28;19955;-68
2021/01/30 13:32:29;;;;;;;;;;;;;;;;;;5051886;28;20011;-67
2021/01/30 13:34:56;;;;;;;;;;;;;;;;;;5055087;28;20020;-67
2021/01/30 13:37:22;;;;;;;;;;;;;;;;;;5063657;28;19931;-69
2021/01/30 13:39:49;;;;;;;;;;;;;;;;;;5056527;28;19925;-68
2021/01/30 13:42:15;;;;;;;;;;;;;;;;;;5056887;28;20000;-68
2021/01/30 13:44:41;;;;;;;;;;;;;;;;;;5071299;28;20375;-69
2021/01/30 13:47:08;;;;;;;;;;;;;;;;;;5056432;28;20273;-67
2021/01/30 13:49:35;;;;;;;;;;;;;;;;;;5057827;28;19966;-68
2021/01/30 13:52:01;;;;;;;;;;;;;;;;;;5063742;28;20393;-68
2021/01/30 13:54:28;;;;;;;;;;;;;;;;;;5060698;28;20011;-69
2021/01/30 13:56:54;;;;;;;;;;;;;;;;;;5056025;28;20288;-68
2021/01/30 13:59:21;;;;;;;;;;;;;;;;;;5064678;28;19924;-66
2021/01/30 14:01:47;;;;;;;;;;;;;;;;;;5056755;28;20023;-67
2021/01/30 14:04:13;;;;;;;;;;;;;;;;;;5067259;28;20027;-67
2021/01/30 14:06:41;;;;;;;;;;;;;;;;;;5058678;28;20023;-68
2021/01/30 14:09:08;;;;;;;;;;;;;;;;;;5061751;28;19925;-67
2021/01/30 14:11:34;;;;;;;;;;;;;;;;;;5055710;28;20397;-66
2021/01/30 14:14:01;;;;;;;;;;;;;;;;;;5051984;28;19924;-66
2021/01/30 14:16:27;;;;;;;;;;;;;;;;;;5057049;28;19929;-68
2021/01/30 14:18:55;;;;;;;;;;;;;;;;;;5059481;28;20288;-67
2021/01/30 14:21:21;;;;;;;;;;;;;;;;;;5061414;28;20005;-67
2021/01/30 14:23:48;;;;;;;;;;;;;;;;;;5059695;28;19980;-66
2021/01/30 14:26:14;;;;;;;;;;;;;;;;;;5065138;28;20382;-66
2021/01/30 14:28:41;;;;;;;;;;;;;;;;;;5055501;28;20022;-66
2021/01/30 14:31:11;;;;;;;;;;;;;;;;;;5059057;28;20356;-66
2021/01/30 14:33:37;;;;;;;;;;;;;;;;;;5057149;28;19975;-67
2021/01/30 14:36:04;;;;;;;;;;;;;;;;;;5049561;28;19925;-68
2021/01/30 14:38:30;;;;;;;;;;;;;;;;;;5040405;28;19978;-67
2021/01/30 14:40:57;;;;;;;;;;;;;;;;;;5047545;28;19932;-67
2021/01/30 14:43:23;;;;;;;;;;;;;;;;;;5059537;28;20123;-67
2021/01/30 14:45:50;;;;;;;;;;;;;;;;;;5051477;28;19932;-67
2021/01/30 14:48:16;;;;;;;;;;;;;;;;;;5053015;28;20410;-68
2021/01/30 14:50:42;;;;;;;;;;;;;;;;;;5058524;28;20381;-66
2021/01/30 14:53:09;;;;;;;;;;;;;;;;;;5056073;28;20127;-67
2021/01/30 14:55:35;;;;;;;;;;;;;;;;;;5045424;28;20016;-67
2021/01/30 14:58:02;;;;;;;;;;;;;;;;;;5053360;28;20420;-67
2021/01/30 15:00:29;;;;;;;;;;;;;;;;;;5048745;28;19925;-67
2021/01/30 15:02:55;;;;;;;;;;;;;;;;;;5053690;28;19924;-67
2021/01/30 15:05:22;;;;;;;;;;;;;;;;;;5054082;28;20392;-68
2021/01/30 15:07:48;;;;;;;;;;;;;;;;;;5053725;28;19987;-67
2021/01/30 15:10:15;;;;;;;;;;;;;;;;;;5053578;28;19929;-67
2021/01/30 15:12:42;;;;;;;;;;;;;;;;;;5053977;28;19928;-67
2021/01/30 15:15:08;;;;;;;;;;;;;;;;;;5057533;28;20426;-67
2021/01/30 15:17:35;;;;;;;;;;;;;;;;;;5053210;28;20373;-68
2021/01/30 15:20:01;;;;;;;;;;;;;;;;;;5053768;28;20615;-68
2021/01/30 15:22:28;;;;;;;;;;;;;;;;;;5053678;28;20071;-69
2021/01/30 15:24:54;;;;;;;;;;;;;;;;;;5053280;28;19931;-67
2021/01/30 15:27:20;;;;;;;;;;;;;;;;;;5053240;28;19929;-68
2021/01/30 15:29:47;;;;;;;;;;;;;;;;;;5053338;28;19928;-67
2021/01/30 15:32:14;;;;;;;;;;;;;;;;;;5052625;28;20558;-66
2021/01/30 15:34:40;;;;;;;;;;;;;;;;;;5055404;28;20031;-67
2021/01/30 15:37:07;;;;;;;;;;;;;;;;;;5053541;28;20345;-67
2021/01/30 15:39:33;;;;;;;;;;;;;;;;;;5052983;28;20505;-66
2021/01/30 15:41:59;;;;;;;;;;;;;;;;;;5058452;28;19925;-67
2021/01/30 15:44:26;;;;;;;;;;;;;;;;;;5051871;28;19932;-67
2021/01/30 15:46:52;;;;;;;;;;;;;;;;;;5052872;28;20331;-67
2021/01/30 15:49:19;;;;;;;;;;;;;;;;;;5052572;28;20019;-67
2021/01/30 15:51:45;;;;;;;;;;;;;;;;;;5063912;28;19928;-67
2021/01/30 15:54:12;;;;;;;;;;;;;;;;;;5057310;28;19924;-67
2021/01/30 15:56:38;;;;;;;;;;;;;;;;;;5055646;28;20020;-66
2021/01/30 15:59:05;;;;;;;;;;;;;;;;;;5065056;28;20382;-67
2021/01/30 16:01:32;;;;;;;;;;;;;;;;;;5055761;28;20243;-66
2021/01/30 16:03:59;;;;;;;;;;;;;;;;;;5051438;28;19944;-67
2021/01/30 16:06:25;;;;;;;;;;;;;;;;;;5059642;28;19932;-67
2021/01/30 16:08:52;;;;;;;;;;;;;;;;;;5041075;28;20003;-67
2021/01/30 16:11:18;;;;;;;;;;;;;;;;;;5057034;28;19931;-67
2021/01/30 16:13:45;;;;;;;;;;;;;;;;;;5052695;28;20383;-66
2021/01/30 16:16:11;;;;;;;;;;;;;;;;;;5051965;28;19925;-66
2021/01/30 16:18:38;;;;;;;;;;;;;;;;;;5052304;28;19936;-66
2021/01/30 16:21:04;;;;;;;;;;;;;;;;;;5069747;28;20407;-66
2021/01/30 16:23:31;;;;;;;;;;;;;;;;;;5061163;28;20008;-67
2021/01/30 16:25:58;;;;;;;;;;;;;;;;;;5054950;28;20012;-66
2021/01/30 16:28:25;;;;;;;;;;;;;;;;;;5042379;28;19925;-67
2021/01/30 16:30:52;;;;;;;;;;;;;;;;;;5063197;28;20514;-67
2021/01/30 16:33:18;;;;;;;;;;;;;;;;;;5055047;28;19936;-67
2021/01/30 16:35:45;;;;;;;;;;;;;;;;;;5058373;28;20055;-66
2021/01/30 16:38:11;;;;;;;;;;;;;;;;;;5067941;28;19925;-67
2021/01/30 16:40:38;;;;;;;;;;;;;;;;;;5052486;28;19925;-66